Pine Bluffs, WY

11:58 AM MST on March 01, 2017 (GMT -0700)
Pine Bluffs Muni, Pine Bluffs

Weather History for K82V - April, 2014

Change the Weather History Date:

Wednesday, April 9, 2014

  Actual Average (KCYS) Record (KCYS)
Temperature  
Mean Temperature 52 °F -  
Max Temperature 73 °F 52 °F 75 °F (1977)
Min Temperature 32 °F 27 °F 6 °F (2013)
Degree Days  
Heating Degree Days 12    
Growing Degree Days 2 (Base 50)    
Moisture  
Dew Point 27 °F    
Average Humidity 40    
Maximum Humidity 87    
Minimum Humidity 14    
Precipitation  
Precipitation 0.00 in - - ()
Sea Level Pressure  
Sea Level Pressure 29.95 in    
Wind  
Wind Speed 8 mph (West)    
Max Wind Speed 24 mph    
Max Gust Speed 34 mph    
Visibility 10 miles    
Events      
Averages and records for this station are not official NWS values.
T = Trace of Precipitation, MM = Missing Value Source: NWS Daily Summary

Daily Weather History Graph

Daily Weather History Graph

Search for Another Location

Airport or City:

Trip Planner

Search our weather history database for the weather conditions in past years. The results will help you decide how hot, cold, wet, or windy it might be!

Date:

Astronomy

Apr. 09, 2014 Rise Set
Actual Time 6:26 AM MDT 7:30 PM MDT
Civil Twilight 5:58 AM MDT 7:58 PM MDT
Nautical Twilight 5:24 AM MDT 8:32 PM MDT
Astronomical Twilight 4:49 AM MDT 9:07 PM MDT
Moon 2:17 PM MDT (4/9) 3:19 AM MDT (4/9)
Length of Visible Light 14h 00m
Length of Day
13h 03m
Waxing Gibbous, 72% of the Moon is Illuminated
Apr 9
Waxing Gibbous
Apr 15
Full
Apr 22
Last Quarter
Apr 29
New
May 6
First Quarter

Hourly Weather History & Observations

Time (MDT) Temp. Windchill Dew Point Humidity Pressure Visibility Wind Dir Wind Speed Gust Speed Precip Events Conditions
12:15 AM 41.0 °F 36.4 °F 30.2 °F 65% 30.07 in 10.0 mi West 6.9 mph - N/A   Clear
12:35 AM 39.2 °F 35.9 °F 30.2 °F 70% 30.07 in 10.0 mi West 4.6 mph - N/A   Clear
12:55 AM 35.6 °F 31.7 °F 30.2 °F 81% 30.07 in 10.0 mi West 4.6 mph - N/A   Clear
1:15 AM 35.6 °F - 28.4 °F 75% 30.06 in 10.0 mi Calm Calm - N/A   Clear
1:35 AM 33.8 °F - 28.4 °F 81% 30.06 in 10.0 mi Calm Calm - N/A   Clear
1:55 AM 33.8 °F - 28.4 °F 81% 30.05 in 10.0 mi Calm Calm - N/A   Clear
2:15 AM 32.0 °F - 28.4 °F 87% 30.04 in 10.0 mi Calm Calm - N/A   Clear
2:35 AM 32.0 °F - 28.4 °F 87% 30.04 in 10.0 mi Calm Calm - N/A   Clear
2:55 AM 37.4 °F 34.9 °F 28.4 °F 70% 30.03 in 10.0 mi WNW 3.5 mph - N/A   Clear
3:15 AM 37.4 °F 34.9 °F 28.4 °F 70% 30.03 in 10.0 mi ESE 3.5 mph - N/A   Clear
3:35 AM 42.8 °F - 28.4 °F 57% 30.02 in 10.0 mi Calm Calm - N/A   Clear
3:55 AM 44.6 °F 42.2 °F 28.4 °F 53% 30.02 in 10.0 mi North 4.6 mph - N/A   Clear
4:15 AM 41.0 °F - 28.4 °F 61% 30.02 in 10.0 mi Calm Calm - N/A   Clear
4:35 AM 41.0 °F 38.0 °F 26.6 °F 57% 30.02 in 10.0 mi East 4.6 mph - N/A   Clear
4:55 AM 37.4 °F 31.4 °F 28.4 °F 70% 30.02 in 10.0 mi SSE 8.1 mph - N/A   Clear
5:15 AM 41.0 °F 38.0 °F 28.4 °F 61% 30.02 in 10.0 mi South 4.6 mph - N/A   Clear
5:35 AM 37.4 °F - 26.6 °F 65% 30.02 in 10.0 mi Calm Calm - N/A   Clear
5:55 AM 35.6 °F 32.8 °F 26.6 °F 70% 30.02 in 10.0 mi SSE 3.5 mph - N/A   Clear
6:15 AM 35.6 °F - 26.6 °F 70% 30.01 in 10.0 mi Calm Calm - N/A   Clear
6:35 AM 35.6 °F 32.8 °F 26.6 °F 70% 30.01 in 10.0 mi South 3.5 mph - N/A   Clear
6:55 AM 37.4 °F 32.8 °F 26.6 °F 65% 30.01 in 10.0 mi South 5.8 mph - N/A   Clear
7:15 AM 41.0 °F 39.0 °F 28.4 °F 61% 30.01 in 10.0 mi South 3.5 mph - N/A   Clear
7:35 AM 44.6 °F 43.1 °F 30.2 °F 57% 30.02 in 10.0 mi South 3.5 mph - N/A   Clear
7:55 AM 48.2 °F - 32.0 °F 54% 30.02 in 10.0 mi South 4.6 mph - N/A   Clear
8:15 AM 50.0 °F - 32.0 °F 50% 30.02 in 10.0 mi SSW 3.5 mph - N/A   Clear
8:35 AM 53.6 °F - 32.0 °F 44% 30.03 in 10.0 mi East 4.6 mph - N/A   Clear
8:55 AM 55.4 °F - 28.4 °F 36% 30.03 in 10.0 mi NNE 4.6 mph - N/A   Clear
9:15 AM 59.0 °F - 28.4 °F 31% 30.02 in 10.0 mi WNW 4.6 mph - N/A   Clear
9:35 AM 62.6 °F - 28.4 °F 27% 30.01 in 10.0 mi West 10.4 mph - N/A   Clear
9:55 AM 62.6 °F - 26.6 °F 26% 30.00 in 10.0 mi West 24.2 mph 34.5 mph N/A   Clear
10:15 AM 64.4 °F - 28.4 °F 26% 30.00 in 10.0 mi West 16.1 mph 25.3 mph N/A   Clear
10:35 AM 64.4 °F - 26.6 °F 24% 30.00 in 10.0 mi West 17.3 mph 28.8 mph N/A   Clear
10:55 AM 64.4 °F - 26.6 °F 24% 29.99 in 10.0 mi West 11.5 mph 24.2 mph N/A   Clear
11:15 AM 62.6 °F - 28.4 °F 27% 29.98 in 10.0 mi West 8.1 mph - N/A   Clear
11:35 AM 64.4 °F - 28.4 °F 26% 29.97 in 10.0 mi West 9.2 mph - N/A   Clear
11:55 AM 68.0 °F - 26.6 °F 21% 29.96 in 10.0 mi West 16.1 mph 23.0 mph N/A   Clear
12:15 PM 68.0 °F - 24.8 °F 20% 29.96 in 10.0 mi West 20.7 mph 32.2 mph N/A   Clear
12:35 PM 69.8 °F - 24.8 °F 18% 29.95 in 10.0 mi West 21.9 mph 28.8 mph N/A   Clear
12:55 PM 71.6 °F - 26.6 °F 19% 29.94 in 10.0 mi West 19.6 mph 25.3 mph N/A   Clear
1:15 PM 71.6 °F - 24.8 °F 17% 29.93 in 10.0 mi West 20.7 mph 27.6 mph N/A   Clear
1:35 PM 71.6 °F - 24.8 °F 17% 29.92 in 10.0 mi West 16.1 mph 23.0 mph N/A   Clear
1:55 PM 71.6 °F - 23.0 °F 16% 29.90 in 10.0 mi West 18.4 mph 26.5 mph N/A   Clear
2:15 PM 71.6 °F - 24.8 °F 17% 29.89 in 10.0 mi West 16.1 mph 21.9 mph N/A   Scattered Clouds
2:35 PM 71.6 °F - 21.2 °F 15% 29.89 in 10.0 mi West 20.7 mph 26.5 mph N/A   Scattered Clouds
2:55 PM 71.6 °F - 21.2 °F 15% 29.88 in 10.0 mi West 15.0 mph 31.1 mph N/A   Mostly Cloudy
3:15 PM 71.6 °F - 21.2 °F 15% 29.87 in 10.0 mi West 18.4 mph 28.8 mph N/A   Scattered Clouds
3:35 PM 71.6 °F - 21.2 °F 15% 29.86 in 10.0 mi West 17.3 mph 31.1 mph N/A   Scattered Clouds
3:55 PM 73.4 °F - 21.2 °F 14% 29.86 in 10.0 mi West 23.0 mph 33.4 mph N/A   Scattered Clouds
4:15 PM 71.6 °F - 21.2 °F 15% 29.85 in 10.0 mi West 18.4 mph - N/A   Clear
4:35 PM 71.6 °F - 21.2 °F 15% 29.84 in 10.0 mi West 21.9 mph 29.9 mph N/A   Scattered Clouds
4:55 PM 69.8 °F - 21.2 °F 16% 29.84 in 10.0 mi West 13.8 mph 24.2 mph N/A   Scattered Clouds
5:15 PM 69.8 °F - 21.2 °F 16% 29.84 in 10.0 mi WNW 18.4 mph 26.5 mph N/A   Mostly Cloudy
5:35 PM 69.8 °F - 23.0 °F 17% 29.84 in 10.0 mi WNW 11.5 mph - N/A   Scattered Clouds
5:55 PM 68.0 °F - 23.0 °F 18% 29.84 in 10.0 mi WNW 16.1 mph 20.7 mph N/A   Scattered Clouds
6:15 PM 68.0 °F - 23.0 °F 18% 29.84 in 10.0 mi WNW 15.0 mph 19.6 mph N/A   Scattered Clouds
6:35 PM 66.2 °F - 23.0 °F 19% 29.84 in 10.0 mi WNW 11.5 mph - N/A   Scattered Clouds
6:55 PM 66.2 °F - 23.0 °F 19% 29.84 in 10.0 mi WNW 16.1 mph - N/A   Scattered Clouds
7:15 PM 64.4 °F - 23.0 °F 21% 29.84 in 10.0 mi WNW 15.0 mph - N/A   Clear
7:35 PM 64.4 °F - 23.0 °F 21% 29.84 in 10.0 mi WNW 16.1 mph - N/A   Clear
7:55 PM 62.6 °F - 23.0 °F 22% 29.85 in 10.0 mi WNW 12.7 mph - N/A   Scattered Clouds
8:15 PM 60.8 °F - 24.8 °F 25% 29.86 in 10.0 mi WNW 12.7 mph - N/A   Scattered Clouds
8:35 PM 60.8 °F - 24.8 °F 25% 29.86 in 10.0 mi West 11.5 mph - N/A   Clear
8:55 PM 57.2 °F - 26.6 °F 31% 29.87 in 10.0 mi WNW 10.4 mph - N/A   Clear
9:15 PM 55.4 °F - 26.6 °F 33% 29.87 in 10.0 mi West 9.2 mph - N/A   Clear
9:35 PM 53.6 °F - 28.4 °F 38% 29.88 in 10.0 mi West 9.2 mph - N/A   Clear
9:55 PM 53.6 °F - 28.4 °F 38% 29.88 in 10.0 mi West 9.2 mph - N/A   Clear
10:15 PM 53.6 °F - 28.4 °F 38% 29.88 in 10.0 mi West 9.2 mph - N/A   Scattered Clouds
10:35 PM 53.6 °F - 28.4 °F 38% 29.88 in 10.0 mi West 11.5 mph - N/A   Scattered Clouds
10:55 PM 53.6 °F - 28.4 °F 38% 29.88 in 10.0 mi West 10.4 mph - N/A   Clear
11:15 PM 51.8 °F - 28.4 °F 41% 29.89 in 10.0 mi West 12.7 mph - N/A   Clear
11:35 PM 51.8 °F - 32.0 °F 47% 29.92 in 10.0 mi NNW 19.6 mph 27.6 mph N/A   Clear
11:55 PM 46.4 °F 38.7 °F 33.8 °F 62% 29.94 in 10.0 mi North 20.7 mph 27.6 mph N/A   Scattered Clouds